Time;durP1;ratioP1;P1;durP2;ratioP2;P2;SDS_P1;SDS_P2;PMS_P1;PMS_P2;Temp;Humidity;BMP_temperature;BMP_pressure;BME280_temperature;BME280_humidity;BME280_pressure;Samples;Min_cycle;Max_cycle;Signal;HPM_P1;HPM_P2
2022/06/21 00:00:05;;;;;;;20.20;6.70;;;23.20;99.90;;;;;;4935603;29;20086;-80
2022/06/21 00:02:32;;;;;;;31.90;8.02;;;23.20;99.90;;;;;;4922944;29;20152;-80
2022/06/21 00:04:57;;;;;;;21.05;8.00;;;23.20;99.90;;;;;;4916874;29;20884;-80
2022/06/21 00:07:26;;;;;;;22.27;7.80;;;23.20;99.90;;;;;;4916324;29;20024;-80
2022/06/21 00:09:52;;;;;;;19.48;7.25;;;23.20;99.90;;;;;;4926556;29;20030;-80
2022/06/21 00:12:20;;;;;;;19.10;7.22;;;23.20;99.90;;;;;;4933633;29;20039;-80
2022/06/21 00:14:46;;;;;;;19.23;7.70;;;23.20;99.90;;;;;;4935510;29;20496;-80
2022/06/21 00:17:18;;;;;;;23.63;7.75;;;23.10;99.90;;;;;;4935563;29;20444;-80
2022/06/21 00:19:45;;;;;;;21.42;7.80;;;23.20;99.90;;;;;;4935232;29;20173;-80
2022/06/21 00:22:14;;;;;;;21.33;6.95;;;23.20;99.90;;;;;;4934125;29;20024;-80
2022/06/21 00:24:40;;;;;;;22.70;7.55;;;23.20;99.90;;;;;;4935294;29;20582;-80
2022/06/21 00:27:16;;;;;;;17.58;7.18;;;23.10;99.90;;;;;;4935049;29;20482;-80
2022/06/21 00:29:43;;;;;;;28.10;8.10;;;23.20;99.90;;;;;;4935347;29;20027;-79
2022/06/21 00:32:14;;;;;;;22.95;7.07;;;23.10;99.90;;;;;;4935284;29;20055;-80
2022/06/21 00:34:41;;;;;;;25.90;6.90;;;23.10;99.90;;;;;;4933333;29;20038;-79
2022/06/21 00:37:13;;;;;;;21.40;6.70;;;23.10;99.90;;;;;;4935255;29;20048;-79
2022/06/21 00:39:39;;;;;;;22.77;7.68;;;23.10;99.90;;;;;;4934839;29;20038;-80
2022/06/21 00:42:20;;;;;;;18.40;7.53;;;23.10;99.90;;;;;;4934877;29;20111;-80
2022/06/21 00:45:03;;;;;;;21.83;7.35;;;23.10;99.90;;;;;;4935322;29;20632;-80
2022/06/21 00:47:35;;;;;;;20.05;7.15;;;23.00;99.90;;;;;;4935852;29;20528;-80
2022/06/21 00:50:29;;;;;;;21.23;6.93;;;23.10;99.90;;;;;;4939067;29;20032;-79
2022/06/21 00:53:07;;;;;;;26.42;7.25;;;23.00;99.90;;;;;;4935033;29;20040;-80
2022/06/21 00:55:42;;;;;;;16.85;6.78;;;23.00;99.90;;;;;;4938264;29;20027;-80
2022/06/21 00:58:11;;;;;;;21.95;7.75;;;23.00;99.90;;;;;;4937375;29;20046;-80
2022/06/21 01:01:01;;;;;;;18.30;6.95;;;23.10;99.90;;;;;;4938751;29;20032;-80
2022/06/21 01:03:41;;;;;;;21.95;7.68;;;23.00;99.90;;;;;;4938862;29;20039;-80
2022/06/21 01:06:12;;;;;;;20.95;7.55;;;23.10;99.90;;;;;;4938881;29;20086;-80
2022/06/21 01:08:43;;;;;;;20.00;7.57;;;23.00;99.90;;;;;;4938822;29;20019;-80
2022/06/21 01:11:13;;;;;;;22.20;7.78;;;23.00;99.90;;;;;;4936984;29;20027;-80
2022/06/21 01:13:43;;;;;;;21.98;7.57;;;23.10;99.90;;;;;;4937308;29;20061;-80
2022/06/21 01:16:10;;;;;;;19.77;6.80;;;23.10;99.90;;;;;;4938827;29;20024;-80
2022/06/21 01:18:37;;;;;;;19.10;7.20;;;23.20;99.90;;;;;;4936920;29;20434;-79
2022/06/21 01:21:03;;;;;;;17.05;6.80;;;23.10;99.90;;;;;;4938524;29;20024;-80
2022/06/21 01:24:00;;;;;;;21.25;7.22;;;23.00;99.90;;;;;;4938343;29;20019;-80
2022/06/21 01:26:40;;;;;;;17.58;8.20;;;23.10;99.90;;;;;;4938278;29;20023;-79
2022/06/21 01:29:10;;;;;;;21.33;7.88;;;23.10;99.90;;;;;;4938472;29;20035;-79
2022/06/21 01:31:36;;;;;;;19.25;6.75;;;23.10;99.90;;;;;;4938350;29;20031;-79
2022/06/21 01:34:02;;;;;;;18.60;6.95;;;23.20;99.90;;;;;;4937802;29;20024;-80
2022/06/21 01:36:33;;;;;;;18.92;6.05;;;23.30;99.90;;;;;;4930718;29;20032;-80
2022/06/21 01:39:09;;;;;;;13.43;5.17;;;23.10;99.90;;;;;;4934050;29;20028;-80
2022/06/21 01:41:50;;;;;;;16.33;4.63;;;22.80;99.90;;;;;;4937948;29;20031;-80
2022/06/21 01:44:22;;;;;;;21.25;5.03;;;22.80;99.90;;;;;;4938140;29;20020;-80
2022/06/21 01:46:48;;;;;;;;;;;22.70;99.90;;;;;;4938559;29;20055;-80
2022/06/21 01:49:19;;;;;;;14.10;4.22;;;22.40;99.90;;;;;;4936387;29;19949;-79
2022/06/21 01:51:57;;;;;;;12.70;4.15;;;22.40;99.90;;;;;;4938368;29;20478;-80
2022/06/21 01:54:26;;;;;;;16.58;4.85;;;22.40;99.90;;;;;;4936086;29;20501;-80
2022/06/21 01:56:52;;;;;;;18.55;4.90;;;22.40;99.90;;;;;;4937641;29;20463;-80
2022/06/21 01:59:27;;;;;;;17.85;4.22;;;22.40;99.90;;;;;;4936746;29;20024;-80
2022/06/21 02:02:14;;;;;;;20.67;4.75;;;22.40;99.90;;;;;;4937341;29;20051;-80
2022/06/21 02:04:51;;;;;;;16.90;4.03;;;22.40;99.90;;;;;;4937534;29;20381;-80
2022/06/21 02:07:22;;;;;;;10.27;3.97;;;22.20;99.90;;;;;;4937536;29;20524;-80
2022/06/21 02:10:14;;;;;;;13.23;3.58;;;22.10;99.90;;;;;;4937571;29;20028;-80
2022/06/21 02:12:48;;;;;;;10.18;4.47;;;22.10;99.90;;;;;;4937288;29;20032;-80
2022/06/21 02:15:33;;;;;;;15.00;4.07;;;22.00;99.90;;;;;;4937515;29;20023;-79
2022/06/21 02:18:01;;;;;;;13.32;4.13;;;22.00;99.90;;;;;;4919941;29;20028;-80
2022/06/21 02:20:40;;;;;;;10.30;3.95;;;22.00;99.90;;;;;;4916880;29;20032;-79
2022/06/21 02:23:06;;;;;;;13.65;3.80;;;22.00;99.90;;;;;;4918044;29;20516;-79
2022/06/21 02:25:33;;;;;;;16.65;4.05;;;22.00;99.90;;;;;;4918171;29;20447;-79
2022/06/21 02:28:07;;;;;;;10.85;3.67;;;22.00;99.90;;;;;;4918161;29;20064;-79
2022/06/21 02:30:36;;;;;;;12.18;3.80;;;22.00;99.90;;;;;;4918196;29;20032;-79
2022/06/21 02:33:05;;;;;;;10.60;4.00;;;22.00;99.90;;;;;;4918016;29;20032;-79
2022/06/21 02:35:45;;;;;;;10.98;3.72;;;22.00;99.90;;;;;;4935967;29;20036;-79
2022/06/21 02:38:16;;;;;;;16.00;3.95;;;21.90;99.90;;;;;;4936969;29;20031;-79
2022/06/21 02:40:45;;;;;;;16.07;3.60;;;21.90;99.90;;;;;;4937042;29;20031;-79
2022/06/21 02:43:17;;;;;;;14.63;4.10;;;21.80;99.90;;;;;;4937161;29;20051;-79
2022/06/21 02:46:10;;;;;;;11.27;3.90;;;21.90;99.90;;;;;;4935681;29;20028;-79
2022/06/21 02:48:42;;;;;;;15.45;3.78;;;21.80;99.90;;;;;;4936655;29;20382;-80
2022/06/21 02:51:15;;;;;;;16.13;4.72;;;21.90;99.90;;;;;;4936667;29;20024;-79
2022/06/21 02:54:10;;;;;;;14.68;4.45;;;21.80;99.90;;;;;;4936676;29;20028;-79
2022/06/21 02:56:48;;;;;;;11.18;3.55;;;21.90;99.90;;;;;;4936545;29;20046;-80
2022/06/21 02:59:15;;;;;;;12.70;3.95;;;21.80;99.90;;;;;;4936420;29;20039;-79
2022/06/21 03:02:06;;;;;;;15.25;4.20;;;21.80;99.90;;;;;;4936382;29;20126;-79
2022/06/21 03:04:39;;;;;;;21.10;4.15;;;21.80;99.90;;;;;;4936530;29;20054;-80
2022/06/21 03:07:07;;;;;;;14.80;3.88;;;21.80;99.90;;;;;;4935910;29;20043;-79
2022/06/21 03:09:34;;;;;;;13.63;3.70;;;21.80;99.90;;;;;;4936613;29;20055;-79
2022/06/21 03:12:04;;;;;;;17.52;4.50;;;21.70;99.90;;;;;;4935750;29;20027;-79
2022/06/21 03:14:33;;;;;;;18.20;3.88;;;21.70;99.90;;;;;;4936137;29;20016;-79
2022/06/21 03:17:01;;;;;;;12.27;4.32;;;21.70;99.90;;;;;;4936110;29;20031;-80
2022/06/21 03:19:44;;;;;;;15.90;3.95;;;21.70;99.90;;;;;;4935002;29;20027;-80
2022/06/21 03:22:22;;;;;;;14.45;3.78;;;21.70;99.90;;;;;;4934869;29;20032;-79
2022/06/21 03:24:51;;;;;;;20.60;4.55;;;21.80;99.90;;;;;;4934718;29;20020;-79
2022/06/21 03:27:26;;;;;;;22.95;4.95;;;21.80;99.90;;;;;;4936121;29;20067;-80
2022/06/21 03:29:51;;;;;;;16.67;4.43;;;21.70;99.90;;;;;;4934884;29;20024;-79
2022/06/21 03:32:17;;;;;;;12.02;3.67;;;21.70;99.90;;;;;;4936336;29;20115;-79
2022/06/21 03:34:44;;;;;;;12.45;3.95;;;21.70;99.90;;;;;;4935660;29;20031;-79
2022/06/21 03:37:11;;;;;;;21.95;4.07;;;21.60;99.90;;;;;;4935942;29;20039;-79
2022/06/21 03:42:27;;;;;;;11.05;3.15;;;21.70;99.90;;;;;;4935757;29;20062;-79
2022/06/21 03:45:01;;;;;;;15.10;3.08;;;21.70;99.90;;;;;;4936044;29;20062;-79
2022/06/21 03:48:13;;;;;;;14.75;3.63;;;21.70;99.90;;;;;;4935932;29;20496;-79
2022/06/21 03:51:10;;;;;;;12.18;3.88;;;21.70;99.90;;;;;;4877091;29;20076;-79
2022/06/21 03:53:40;;;;;;;10.75;4.18;;;21.70;99.90;;;;;;4850369;29;20162;-80
2022/06/21 03:56:17;;;;;;;14.32;3.92;;;21.60;99.90;;;;;;4839882;29;20173;-79
2022/06/21 03:58:58;;;;;;;16.05;4.20;;;21.50;99.90;;;;;;4850084;29;20041;-79
2022/06/21 04:01:51;;;;;;;13.02;3.78;;;21.60;99.90;;;;;;4858170;29;20086;-79
2022/06/21 04:04:29;;;;;;;14.18;3.33;;;21.60;99.90;;;;;;4858071;29;20026;-79
2022/06/21 04:06:59;;;;;;;13.43;4.32;;;21.60;99.90;;;;;;4858293;29;20064;-79
2022/06/21 04:09:31;;;;;;;14.55;4.00;;;21.50;99.90;;;;;;4858332;29;20145;-80
2022/06/21 04:12:02;;;;;;;14.27;4.03;;;21.30;99.90;;;;;;4858387;29;20066;-80
2022/06/21 04:14:44;;;;;;;19.15;4.18;;;21.40;99.90;;;;;;4858513;29;20042;-79
2022/06/21 04:17:30;;;;;;;13.70;4.70;;;21.40;99.90;;;;;;4842831;29;20057;-79
2022/06/21 04:20:04;;;;;;;18.27;4.57;;;21.40;99.90;;;;;;4857778;29;20041;-79
2022/06/21 04:22:38;;;;;;;17.98;4.30;;;21.40;99.90;;;;;;4856061;29;20036;-80
2022/06/21 04:25:18;;;;;;;18.90;4.57;;;21.30;99.90;;;;;;4839786;29;20126;-79
2022/06/21 04:28:02;;;;;;;16.05;5.03;;;21.30;99.90;;;;;;4910310;29;20047;-78
2022/06/21 04:30:48;;;;;;;17.15;4.50;;;21.20;99.90;;;;;;4935200;29;20031;-78
2022/06/21 04:33:32;;;;;;;16.23;4.18;;;21.30;99.90;;;;;;4916197;29;20032;-78
2022/06/21 04:36:19;;;;;;;16.60;4.40;;;21.30;99.90;;;;;;4931908;29;20052;-79
2022/06/21 04:39:00;;;;;;;19.98;5.38;;;21.30;99.90;;;;;;4928948;29;20078;-79
2022/06/21 04:42:02;;;;;;;21.00;4.13;;;21.30;99.90;;;;;;4931674;29;20056;-78
2022/06/21 04:44:34;;;;;;;10.60;3.85;;;21.30;99.90;;;;;;4926847;29;20048;-78
2022/06/21 04:47:12;;;;;;;15.68;4.53;;;21.20;99.90;;;;;;4928799;29;20051;-78
2022/06/21 04:49:45;;;;;;;16.20;4.10;;;21.20;99.90;;;;;;4930404;29;20043;-73
2022/06/21 04:52:19;;;;;;;16.02;3.85;;;21.10;99.90;;;;;;4934701;29;20027;-77
2022/06/21 04:54:44;;;;;;;16.65;4.63;;;21.10;99.90;;;;;;4928863;29;20111;-78
2022/06/21 04:57:22;;;;;;;17.25;4.18;;;21.10;99.90;;;;;;4924269;29;20431;-77
2022/06/21 04:59:54;;;;;;;18.27;4.13;;;21.10;99.90;;;;;;4936461;29;20118;-77
2022/06/21 05:02:24;;;;;;;16.42;4.68;;;21.10;99.90;;;;;;4933770;29;20079;-73
2022/06/21 05:04:58;;;;;;;19.60;4.65;;;21.10;99.90;;;;;;4931758;29;20087;-79
2022/06/21 05:07:26;;;;;;;19.13;4.15;;;21.10;99.90;;;;;;4923774;29;20043;-78
2022/06/21 05:09:55;;;;;;;12.73;3.70;;;21.10;99.90;;;;;;4922281;29;20497;-79
2022/06/21 05:12:25;;;;;;;9.90;3.50;;;21.10;99.90;;;;;;4934133;29;20034;-78
2022/06/21 05:14:56;;;;;;;18.60;4.93;;;21.10;99.90;;;;;;4935807;29;20401;-80
2022/06/21 05:17:22;;;;;;;20.02;4.50;;;21.10;99.90;;;;;;4915844;29;20548;-79
2022/06/21 10:28:12;;;;;;;26.65;7.47;;;23.80;99.90;;;;;;5825617;23;21199;-76
2022/06/21 10:31:28;;;;;;;24.00;7.22;;;24.00;99.90;;;;;;4944388;28;20054;-79
2022/06/21 10:34:27;;;;;;;24.40;7.72;;;23.90;99.90;;;;;;4907654;29;20456;-82
2022/06/21 10:37:07;;;;;;;29.08;8.25;;;24.10;99.90;;;;;;4955594;28;20019;-76
2022/06/21 10:39:50;;;;;;;26.42;7.50;;;24.20;99.90;;;;;;4950023;29;20091;-76
2022/06/21 10:42:47;;;;;;;24.90;7.65;;;24.20;99.90;;;;;;4953853;29;20023;-76
2022/06/21 10:45:37;;;;;;;25.52;7.50;;;24.30;99.90;;;;;;4954264;29;20023;-76
2022/06/21 10:48:19;;;;;;;19.80;7.25;;;24.40;99.90;;;;;;4955673;28;20026;-76
2022/06/21 10:51:03;;;;;;;21.83;7.68;;;24.80;99.90;;;;;;4955253;28;20027;-77
2022/06/21 10:53:50;;;;;;;24.80;7.28;;;25.20;99.90;;;;;;4953913;29;20126;-76
2022/06/21 11:02:54;;;;;;;23.35;7.25;;;24.30;99.90;;;;;;4913958;29;20047;-76
2022/06/21 11:05:59;;;;;;;28.52;7.90;;;24.50;99.90;;;;;;4915106;29;20024;-76
2022/06/21 11:08:51;;;;;;;24.08;8.00;;;24.50;99.90;;;;;;4915257;29;20110;-76
2022/06/21 11:11:45;;;;;;;21.90;7.38;;;24.50;99.90;;;;;;4899455;29;20036;-76
2022/06/21 11:14:16;;;;;;;20.15;7.20;;;24.60;99.90;;;;;;4915436;29;20446;-76
2022/06/21 11:16:48;;;;;;;21.17;7.97;;;25.00;99.90;;;;;;4898676;29;20076;-76
2022/06/21 14:37:27;;;;;;;21.92;6.90;;;29.40;90.20;;;;;;4922976;23;20541;-79
2022/06/21 14:40:15;;;;;;;21.10;6.57;;;29.60;90.00;;;;;;4900518;29;20033;-80
2022/06/21 14:42:56;;;;;;;21.42;6.97;;;29.30;90.30;;;;;;4898370;29;20024;-78
2022/06/21 14:45:38;;;;;;;25.83;7.53;;;29.20;90.40;;;;;;4898864;29;20017;-79
2022/06/21 14:48:28;;;;;;;20.58;8.18;;;29.60;90.30;;;;;;4898553;29;20062;-79
2022/06/21 14:51:17;;;;;;;24.38;7.50;;;28.70;90.60;;;;;;4898883;29;20033;-79
2022/06/21 14:53:48;;;;;;;22.20;7.20;;;28.30;91.30;;;;;;4898471;29;20025;-80
2022/06/21 14:56:22;;;;;;;24.35;7.03;;;28.40;91.20;;;;;;4898199;29;20029;-79
2022/06/21 14:59:14;;;;;;;20.95;6.90;;;28.90;91.00;;;;;;4899012;29;20032;-79
2022/06/21 15:01:39;;;;;;;;;;;29.30;90.10;;;;;;4915772;29;20507;-79
2022/06/21 15:04:46;;;;;;;30.13;7.38;;;29.30;90.20;;;;;;4896792;29;19914;-79
2022/06/21 15:07:26;;;;;;;22.15;8.23;;;28.70;90.60;;;;;;4803738;29;20054;-78
2022/06/21 15:10:08;;;;;;;24.98;7.68;;;28.60;91.40;;;;;;4804693;29;20027;-79
2022/06/21 15:12:42;;;;;;;24.05;6.90;;;28.40;91.20;;;;;;4804169;29;20102;-79
2022/06/21 15:15:23;;;;;;;22.70;7.35;;;28.30;91.20;;;;;;4804162;29;20094;-79
2022/06/21 15:18:02;;;;;;;24.03;8.07;;;28.40;91.60;;;;;;4804272;29;20058;-79
2022/06/21 15:21:04;;;;;;;23.83;7.47;;;28.60;90.60;;;;;;4804432;29;20039;-81
2022/06/21 15:23:30;;;;;;;23.95;7.00;;;28.40;91.10;;;;;;4804748;29;20526;-80
2022/06/21 15:26:01;;;;;;;21.80;7.18;;;28.20;91.80;;;;;;4803687;29;20118;-86
2022/06/21 15:28:35;;;;;;;28.10;7.25;;;28.20;91.70;;;;;;4804252;29;20023;-85
2022/06/21 15:31:14;;;;;;;30.30;7.47;;;28.40;91.80;;;;;;4803959;29;20076;-84
2022/06/21 15:33:56;;;;;;;32.33;7.22;;;28.50;91.30;;;;;;4804104;29;20027;-80
2022/06/21 15:36:25;;;;;;;27.42;7.47;;;28.20;91.80;;;;;;4803343;29;20062;-79
2022/06/21 15:39:32;;;;;;;23.00;6.55;;;28.30;91.90;;;;;;4858511;29;20041;-76
2022/06/21 15:42:27;;;;;;;23.23;7.45;;;28.20;91.70;;;;;;4858558;29;20539;-79
2022/06/21 15:45:17;;;;;;;24.85;7.75;;;27.80;92.50;;;;;;4839348;29;20054;-79
2022/06/21 15:51:05;;;;;;;26.17;7.90;;;27.70;92.60;;;;;;4836761;29;20750;-79
2022/06/21 15:53:42;;;;;;;21.83;7.53;;;27.90;92.70;;;;;;4822077;29;20049;-78
2022/06/21 15:56:46;;;;;;;22.27;7.20;;;27.70;93.20;;;;;;4821100;29;20240;-77
2022/06/21 15:59:25;;;;;;;21.10;7.45;;;27.80;92.70;;;;;;4837256;29;20033;-77
2022/06/21 16:02:05;;;;;;;24.10;7.85;;;27.50;93.30;;;;;;4839185;29;20033;-78
2022/06/21 16:04:33;;;;;;;25.85;7.78;;;27.30;94.00;;;;;;4839709;29;20034;-78
2022/06/21 16:07:22;;;;;;;27.85;7.75;;;27.20;94.10;;;;;;4839504;29;20121;-78
2022/06/21 16:09:51;;;;;;;29.23;8.77;;;27.10;94.70;;;;;;4826525;29;20034;-77
2022/06/21 16:12:28;;;;;;;25.88;7.45;;;27.20;94.30;;;;;;4837536;29;20056;-78
2022/06/21 16:15:00;;;;;;;23.08;7.07;;;27.10;94.30;;;;;;4834211;29;20104;-80
2022/06/21 16:17:31;;;;;;;29.75;8.50;;;27.10;94.50;;;;;;4828787;29;20038;-77
2022/06/21 16:20:19;;;;;;;29.05;7.90;;;27.00;94.80;;;;;;4835253;29;20037;-78
2022/06/21 16:22:55;;;;;;;29.45;8.30;;;26.60;95.10;;;;;;4874294;29;20466;-78
2022/06/21 16:25:27;;;;;;;30.83;8.55;;;26.80;95.30;;;;;;4878181;29;20040;-78
2022/06/21 16:28:29;;;;;;;25.40;8.02;;;26.80;95.60;;;;;;4879118;29;20061;-78
2022/06/21 16:34:20;;;;;;;33.83;9.23;;;26.90;95.10;;;;;;4863447;29;20422;-77
2022/06/21 16:37:21;;;;;;;34.42;8.25;;;26.80;94.90;;;;;;4882651;29;20048;-78
2022/06/21 17:00:24;;;;;;;22.15;7.55;;;26.10;97.00;;;;;;4929988;29;20148;-76
2022/06/21 17:02:50;;;;;;;31.27;9.82;;;26.10;97.20;;;;;;4937764;29;20404;-77
2022/06/21 17:05:28;;;;;;;20.88;8.73;;;26.00;97.30;;;;;;4936758;29;20040;-77
2022/06/21 17:07:55;;;;;;;24.00;8.43;;;25.80;97.30;;;;;;4939842;29;20460;-77
2022/06/21 17:13:27;;;;;;;33.78;8.75;;;25.70;98.60;;;;;;4942276;29;20455;-77
2022/06/21 17:16:19;;;;;;;28.88;8.55;;;25.50;99.00;;;;;;4948462;28;20023;-77
2022/06/21 17:18:54;;;;;;;;;;;25.50;99.90;;;;;;4935777;28;20047;-77
2022/06/21 17:21:45;;;;;;;26.45;8.73;;;25.60;99.90;;;;;;4941533;29;19914;-76
2022/06/21 17:24:27;;;;;;;19.85;8.43;;;25.60;99.90;;;;;;4940099;29;20499;-77
2022/06/21 17:27:04;;;;;;;25.85;9.10;;;25.20;99.90;;;;;;4947148;28;20048;-76
2022/06/21 17:30:00;;;;;;;19.90;7.82;;;24.90;99.90;;;;;;4938481;28;20030;-76
2022/06/21 17:32:35;;;;;;;27.25;9.27;;;24.70;99.90;;;;;;4941700;28;20032;-77
2022/06/21 17:35:12;;;;;;;32.22;10.00;;;24.40;99.90;;;;;;4950448;29;21591;-76
2022/06/21 17:37:48;;;;;;;26.98;9.77;;;24.30;99.90;;;;;;4942648;28;20161;-76
2022/06/21 17:40:50;;;;;;;25.40;10.68;;;24.10;99.90;;;;;;4944566;28;21346;-77
2022/06/21 17:43:23;;;;;;;24.50;9.48;;;24.20;99.90;;;;;;4942281;29;20055;-76
2022/06/21 17:45:55;;;;;;;24.45;9.93;;;24.10;99.90;;;;;;4943178;29;20062;-77
2022/06/21 17:48:27;;;;;;;26.88;9.50;;;23.90;99.90;;;;;;4942982;29;20027;-76
2022/06/21 17:50:58;;;;;;;23.90;9.02;;;23.90;99.90;;;;;;4943946;29;20433;-77
2022/06/21 17:53:30;;;;;;;22.73;9.90;;;23.90;99.90;;;;;;4947198;28;20032;-76
2022/06/21 17:56:01;;;;;;;;;;;24.00;99.90;;;;;;4948095;29;20086;-79
2022/06/21 17:58:47;;;;;;;18.97;9.53;;;24.10;99.90;;;;;;4942896;28;19914;-77
2022/06/21 18:01:40;;;;;;;26.35;9.32;;;24.00;99.90;;;;;;4946127;29;20028;-79
2022/06/21 18:04:54;;;;;;;22.77;9.88;;;23.70;99.90;;;;;;4930635;29;20031;-80
2022/06/21 18:07:32;;;;;;;24.27;10.73;;;23.70;99.90;;;;;;4862813;29;20056;-78
2022/06/21 18:10:06;;;;;;;24.08;10.15;;;23.70;99.90;;;;;;4878917;29;20045;-79
2022/06/21 18:12:38;;;;;;;26.98;10.52;;;23.80;99.90;;;;;;4890465;29;20025;-78
2022/06/21 18:15:04;;;;;;;20.60;9.13;;;23.70;99.90;;;;;;4889119;29;20044;-77
2022/06/21 18:17:55;;;;;;;25.27;10.02;;;23.80;99.90;;;;;;4887476;29;20028;-80
2022/06/21 18:20:38;;;;;;;17.80;9.30;;;23.80;99.90;;;;;;4886189;29;20188;-77
2022/06/21 18:23:22;;;;;;;19.27;9.57;;;23.80;99.90;;;;;;4876124;29;20046;-77
2022/06/21 18:25:52;;;;;;;18.85;9.32;;;23.90;99.90;;;;;;4881062;29;20033;-77
2022/06/21 18:28:39;;;;;;;23.70;10.27;;;23.80;99.90;;;;;;4881390;29;20033;-77
2022/06/21 18:31:21;;;;;;;19.98;9.93;;;23.70;99.90;;;;;;4878724;29;20076;-76
2022/06/21 18:33:48;;;;;;;22.30;9.93;;;23.10;99.90;;;;;;4884870;29;20047;-77
2022/06/21 18:36:21;;;;;;;25.42;10.20;;;22.80;99.90;;;;;;4880842;29;20033;-77
2022/06/21 18:39:30;;;;;;;21.60;9.40;;;22.80;99.90;;;;;;4870386;29;20057;-79
2022/06/21 18:42:08;;;;;;;18.52;9.52;;;23.10;99.90;;;;;;4928467;29;20069;-78
2022/06/21 18:44:44;;;;;;;21.48;10.48;;;23.00;99.90;;;;;;4935744;29;20540;-78
2022/06/21 18:47:45;;;;;;;23.48;10.60;;;22.90;99.90;;;;;;4933534;29;20466;-78
2022/06/21 18:50:51;;;;;;;24.55;10.82;;;22.50;99.90;;;;;;4915195;29;20047;-78
2022/06/21 18:53:31;;;;;;;19.00;10.35;;;22.40;99.90;;;;;;4941536;29;20023;-79
2022/06/21 18:56:30;;;;;;;20.50;9.80;;;22.60;99.90;;;;;;4940793;29;20031;-78
2022/06/21 18:58:59;;;;;;;25.85;10.82;;;22.80;99.90;;;;;;4929319;29;20067;-79
2022/06/21 19:01:37;;;;;;;20.13;10.05;;;22.70;99.90;;;;;;4925249;29;20124;-80
2022/06/21 19:04:26;;;;;;;18.85;9.98;;;22.60;99.90;;;;;;4921362;29;20497;-80
2022/06/21 19:10:15;;;;;;;21.10;10.40;;;22.70;99.90;;;;;;4936910;29;20110;-80
2022/06/21 19:12:51;;;;;;;21.75;10.65;;;22.40;99.90;;;;;;4917832;29;20036;-79
2022/06/21 19:15:41;;;;;;;22.95;10.25;;;22.30;99.90;;;;;;4917651;29;20111;-78
2022/06/21 19:18:25;;;;;;;19.10;9.82;;;22.20;99.90;;;;;;4926857;29;20043;-80
2022/06/21 19:21:01;;;;;;;25.15;11.02;;;22.30;99.90;;;;;;4924059;29;20027;-79
2022/06/21 19:23:30;;;;;;;20.65;10.82;;;22.30;99.90;;;;;;4927238;29;20040;-78
2022/06/21 19:26:01;;;;;;;26.05;10.68;;;22.20;99.90;;;;;;4930796;29;20039;-79
2022/06/21 19:28:55;;;;;;;22.20;10.50;;;22.20;99.90;;;;;;4930869;29;20033;-79
2022/06/21 19:31:59;;;;;;;25.20;10.02;;;22.10;99.90;;;;;;4930403;29;20032;-79
2022/06/21 19:34:44;;;;;;;19.33;9.32;;;22.00;99.90;;;;;;4895436;29;20037;-79
2022/06/21 19:37:40;;;;;;;20.40;9.25;;;22.00;99.90;;;;;;4894838;29;20025;-78
2022/06/21 19:40:08;;;;;;;21.38;9.20;;;22.00;99.90;;;;;;4895013;29;20088;-79
2022/06/21 19:42:40;;;;;;;24.38;9.05;;;22.10;99.90;;;;;;4879977;29;20418;-78
2022/06/21 19:45:50;;;;;;;22.58;9.18;;;21.90;99.90;;;;;;4895308;29;20046;-78
2022/06/21 19:48:18;;;;;;;24.85;9.50;;;22.00;99.90;;;;;;4894495;29;20037;-78
2022/06/21 19:51:05;;;;;;;20.17;7.95;;;22.10;99.90;;;;;;4894558;29;20033;-79
2022/06/21 19:53:53;;;;;;;22.40;8.95;;;22.10;99.90;;;;;;4878541;29;20152;-78
2022/06/21 19:56:18;;;;;;;19.13;7.72;;;22.10;99.90;;;;;;4894717;29;20080;-79
2022/06/21 19:59:22;;;;;;;30.15;8.45;;;22.00;99.90;;;;;;4894947;29;20088;-78
2022/06/21 20:02:09;;;;;;;26.45;8.65;;;21.80;99.90;;;;;;4895222;29;20040;-79
2022/06/21 20:04:43;;;;;;;26.73;8.93;;;21.80;99.90;;;;;;4904330;29;20032;-80
2022/06/21 20:07:09;;;;;;;26.88;8.43;;;22.00;99.90;;;;;;4935122;29;20024;-80
2022/06/21 20:09:39;;;;;;;25.25;8.35;;;22.00;99.90;;;;;;4933967;29;20038;-79
2022/06/21 20:12:08;;;;;;;21.92;8.45;;;22.00;99.90;;;;;;4934482;29;20046;-79
2022/06/21 20:14:46;;;;;;;19.02;7.97;;;22.00;99.90;;;;;;4916574;29;20020;-79
2022/06/21 20:17:58;;;;;;;22.30;8.32;;;21.90;99.90;;;;;;4922988;29;20371;-79
2022/06/21 20:20:39;;;;;;;27.50;9.75;;;21.90;99.90;;;;;;4925060;29;20505;-79
2022/06/21 20:23:23;;;;;;;34.55;10.57;;;21.90;99.90;;;;;;4916302;29;20016;-79
2022/06/21 20:26:07;;;;;;;31.88;10.48;;;21.90;99.90;;;;;;4923620;29;20024;-79
2022/06/21 20:28:44;;;;;;;29.88;10.82;;;21.90;99.90;;;;;;4932511;29;20486;-79
2022/06/21 20:31:29;;;;;;;21.58;9.93;;;21.90;99.90;;;;;;4930819;29;20031;-79
2022/06/21 20:34:01;;;;;;;24.48;10.50;;;21.90;99.90;;;;;;4935407;29;20024;-79
2022/06/21 20:36:30;;;;;;;21.67;10.85;;;21.80;99.90;;;;;;4934531;29;20036;-79
2022/06/21 20:39:01;;;;;;;26.52;11.82;;;21.80;99.90;;;;;;4934137;29;20386;-79
2022/06/21 20:41:35;;;;;;;21.83;11.45;;;21.90;99.90;;;;;;4934862;29;20035;-79
2022/06/21 20:44:10;;;;;;;31.30;12.75;;;21.80;99.90;;;;;;4935279;29;20083;-79
2022/06/21 20:46:42;;;;;;;20.92;11.38;;;21.80;99.90;;;;;;4935582;29;20346;-79
2022/06/21 20:49:11;;;;;;;23.70;12.30;;;21.80;99.90;;;;;;4935191;29;20024;-79
2022/06/21 20:51:41;;;;;;;26.08;12.60;;;21.90;99.90;;;;;;4934575;29;20486;-79
2022/06/21 20:54:12;;;;;;;23.40;12.75;;;22.00;99.90;;;;;;4935280;29;20596;-79
2022/06/21 20:56:41;;;;;;;24.73;12.20;;;22.00;99.90;;;;;;4935006;29;20032;-79
2022/06/21 20:59:13;;;;;;;26.52;12.82;;;22.00;99.90;;;;;;4934394;29;20405;-79
2022/06/21 21:01:45;;;;;;;;;;;22.00;99.90;;;;;;4935654;29;20020;-79
2022/06/21 21:04:15;;;;;;;;;;;22.00;99.90;;;;;;4934782;29;19906;-79
2022/06/21 21:06:45;;;;;;;21.75;11.65;;;22.00;99.90;;;;;;4937836;29;20001;-79
2022/06/21 21:09:20;;;;;;;25.58;13.27;;;22.00;99.90;;;;;;4938723;29;20078;-79
2022/06/21 21:11:47;;;;;;;27.92;13.07;;;22.10;99.90;;;;;;4938627;29;20082;-79
2022/06/21 21:14:22;;;;;;;28.15;12.93;;;22.00;99.90;;;;;;4938117;29;20055;-79
2022/06/21 21:16:54;;;;;;;25.58;12.48;;;22.00;99.90;;;;;;4931177;29;20020;-79
2022/06/21 21:19:33;;;;;;;27.70;12.93;;;22.10;99.90;;;;;;4919722;29;20443;-79
2022/06/21 21:22:06;;;;;;;27.33;12.45;;;22.10;99.90;;;;;;4920246;29;20028;-80
2022/06/21 21:24:44;;;;;;;30.67;12.82;;;22.00;99.90;;;;;;4922509;29;20019;-79
2022/06/21 21:27:14;;;;;;;26.25;13.52;;;21.80;99.90;;;;;;4931239;29;20103;-79
2022/06/21 21:29:44;;;;;;;26.38;12.32;;;21.70;99.90;;;;;;4924074;29;20481;-79
2022/06/21 21:32:30;;;;;;;34.88;13.35;;;21.60;99.90;;;;;;4938385;29;20390;-79
2022/06/21 21:35:28;;;;;;;32.30;12.55;;;21.60;99.90;;;;;;4923107;29;20024;-79
2022/06/21 21:38:08;;;;;;;31.42;13.18;;;21.70;99.90;;;;;;4918152;29;20036;-79
2022/06/21 21:40:46;;;;;;;31.95;13.20;;;21.70;99.90;;;;;;4919255;29;20028;-80
2022/06/21 21:43:24;;;;;;;33.13;13.07;;;21.60;99.90;;;;;;4918878;29;20024;-79
2022/06/21 21:46:04;;;;;;;33.95;12.75;;;21.60;99.90;;;;;;4938179;29;20119;-80
2022/06/21 21:48:35;;;;;;;36.05;13.25;;;21.60;99.90;;;;;;4936934;29;20031;-80
2022/06/21 21:51:01;;;;;;;31.88;12.13;;;21.60;99.90;;;;;;4938226;29;20032;-80
2022/06/21 21:53:32;;;;;;;31.30;12.45;;;21.50;99.90;;;;;;4934521;29;20028;-80
2022/06/21 21:55:58;;;;;;;31.88;12.25;;;21.50;99.90;;;;;;4925419;29;20158;-79
2022/06/21 21:58:24;;;;;;;32.97;12.30;;;21.50;99.90;;;;;;4919901;29;20074;-80
2022/06/21 22:01:11;;;;;;;32.15;11.70;;;21.60;99.90;;;;;;4937240;29;20524;-80
2022/06/21 22:03:40;;;;;;;33.47;11.52;;;21.50;99.90;;;;;;4935751;29;20383;-80
2022/06/21 22:06:12;;;;;;;35.20;11.68;;;21.40;99.90;;;;;;4936577;29;20031;-80
2022/06/21 22:08:49;;;;;;;38.28;11.70;;;21.50;99.90;;;;;;4937618;29;20030;-80
2022/06/21 22:11:19;;;;;;;30.55;11.15;;;21.50;99.90;;;;;;4935960;29;20031;-80
2022/06/21 22:14:14;;;;;;;32.42;10.15;;;21.40;99.90;;;;;;4937104;29;20032;-80
2022/06/21 22:16:56;;;;;;;36.22;11.48;;;21.40;99.90;;;;;;4843655;29;20064;-80
2022/06/21 22:19:24;;;;;;;;;;;21.50;99.90;;;;;;4860706;29;20032;-80
2022/06/21 22:21:50;;;;;;;25.23;10.52;;;21.50;99.90;;;;;;4844701;29;20339;-80
2022/06/21 22:24:22;;;;;;;32.25;10.02;;;21.50;99.90;;;;;;4860009;29;20044;-80
2022/06/21 22:26:49;;;;;;;28.55;10.98;;;21.50;99.90;;;;;;4859767;29;20030;-79
2022/06/21 22:29:30;;;;;;;32.03;11.60;;;21.50;99.90;;;;;;4860408;29;20104;-80
2022/06/21 22:32:04;;;;;;;27.85;10.50;;;21.40;99.90;;;;;;4858455;29;20535;-79
2022/06/21 22:34:35;;;;;;;27.20;11.13;;;21.50;99.90;;;;;;4859523;29;20050;-79
2022/06/21 22:37:23;;;;;;;26.75;10.82;;;21.50;99.90;;;;;;4853736;29;20121;-79